Pleasant Lake, Michigan
Current Conditions -  °F | °C
As of 2:56 AM on Wednesday 26 Nov 2014 (Local Time) from KJXN Reporting Station
Overcast Overcast  
Wind Chill: 22°   Ceiling: 1700
Heat Index: 27°   Visibility: 10mi
Dew Point: 20°   Wind: 5mph
Humidity: 75%   Direction: 300°WNW
Pressure: 30.17"   Gusts: NA
Location:  42.38°N, 84.35°W
Report Text: KJXN 260756Z 30004KT 10SM OVC017 M03/M07 A3017 RMK AO2 SLP229 T10281067
Loading
Personal Weather Stations






























Interactive Weather Map New forecast layout! Learn more

10-Day Weather Forecast

Advertisements
Track Severe Weather on mobile